createdAt,value
2023-04-24T00:01:34.178Z,10.42
2023-04-24T00:04:01.005Z,10.36
2023-04-24T00:06:27.583Z,10.37
2023-04-24T00:08:54.061Z,10.38
2023-04-24T00:11:20.526Z,10.35
2023-04-24T00:13:46.964Z,10.32
2023-04-24T00:16:13.459Z,10.29
2023-04-24T00:18:40.161Z,10.33
2023-04-24T00:21:06.887Z,10.37
2023-04-24T00:23:33.673Z,10.41
2023-04-24T00:26:00.371Z,10.38
2023-04-24T00:28:26.812Z,10.36
2023-04-24T00:30:54.807Z,10.41
2023-04-24T00:33:21.230Z,10.45
2023-04-24T00:35:48.037Z,10.46
2023-04-24T00:38:14.668Z,10.45
2023-04-24T00:40:41.154Z,10.46
2023-04-24T00:43:09.406Z,10.44
2023-04-24T00:45:37.278Z,10.45
2023-04-24T00:48:03.843Z,10.47
2023-04-24T00:50:30.649Z,10.48
2023-04-24T00:52:57.493Z,10.46
2023-04-24T00:55:24.247Z,10.52
2023-04-24T00:57:51.601Z,10.50
2023-04-24T01:00:18.380Z,10.46
2023-04-24T01:02:45.666Z,10.43
2023-04-24T01:05:13.988Z,10.40
2023-04-24T01:07:42.207Z,10.37
2023-04-24T01:10:09.804Z,10.34
2023-04-24T01:12:36.331Z,10.35
2023-04-24T01:15:03.071Z,10.37
2023-04-24T01:17:29.739Z,10.42
2023-04-24T01:19:57.061Z,10.47
2023-04-24T01:22:23.750Z,10.47
2023-04-24T01:24:50.205Z,10.50
2023-04-24T01:27:16.691Z,10.54
2023-04-24T01:29:43.519Z,10.54
2023-04-24T01:32:10.378Z,10.52
2023-04-24T01:34:38.385Z,10.53
2023-04-24T01:37:05.996Z,10.56
2023-04-24T01:39:33.037Z,10.57
2023-04-24T01:41:59.463Z,10.57
2023-04-24T01:44:26.548Z,10.54
2023-04-24T01:46:53.298Z,10.52
2023-04-24T01:49:19.922Z,10.43
2023-04-24T01:51:46.480Z,10.36
2023-04-24T01:54:13.511Z,10.25
2023-04-24T01:56:44.227Z,10.20
2023-04-24T01:59:13.994Z,10.17
2023-04-24T02:01:40.634Z,10.12
2023-04-24T02:04:08.938Z,10.08
2023-04-24T02:06:36.149Z,10.07
2023-04-24T02:09:03.566Z,10.06
2023-04-24T02:11:30.179Z,10.05
2023-04-24T02:13:56.695Z,10.11
2023-04-24T02:16:23.508Z,10.11
2023-04-24T02:18:49.943Z,10.12
2023-04-24T02:21:16.359Z,10.11
2023-04-24T02:23:42.834Z,10.09
2023-04-24T02:26:09.425Z,10.09
2023-04-24T02:28:36.237Z,10.09
2023-04-24T02:31:02.871Z,10.08
2023-04-24T02:33:29.456Z,10.07
2023-04-24T02:35:55.879Z,10.03
2023-04-24T02:38:23.389Z,10.08
2023-04-24T02:40:49.907Z,10.10
2023-04-24T02:43:16.402Z,10.06
2023-04-24T02:45:42.939Z,9.97
2023-04-24T02:48:09.364Z,9.95
2023-04-24T02:50:35.912Z,9.94
2023-04-24T02:53:02.462Z,9.92
2023-04-24T02:55:29.186Z,9.95
2023-04-24T02:57:55.646Z,9.96
2023-04-24T03:00:22.434Z,9.95
2023-04-24T03:02:49.175Z,9.98
2023-04-24T03:05:16.004Z,10.02
2023-04-24T03:07:42.550Z,10.05
2023-04-24T03:10:09.511Z,10.04
2023-04-24T03:12:36.108Z,10.08
2023-04-24T03:15:03.128Z,10.12
2023-04-24T03:17:29.738Z,10.20
2023-04-24T03:19:56.746Z,10.23
2023-04-24T03:22:24.291Z,10.33
2023-04-24T03:24:50.892Z,10.33
2023-04-24T03:27:17.568Z,10.34
2023-04-24T03:29:44.279Z,10.36
2023-04-24T03:32:11.142Z,10.37
2023-04-24T03:34:37.685Z,10.34
2023-04-24T03:37:05.023Z,10.30
2023-04-24T03:39:31.736Z,10.27
2023-04-24T03:41:58.256Z,10.22
2023-04-24T03:44:24.717Z,10.17
2023-04-24T03:46:51.181Z,10.18
2023-04-24T03:49:17.637Z,10.17
2023-04-24T03:51:44.186Z,10.15
2023-04-24T03:54:10.670Z,10.16
2023-04-24T03:56:37.101Z,10.10
2023-04-24T03:59:03.519Z,10.04
2023-04-24T04:01:30.029Z,10.05
2023-04-24T04:03:56.530Z,10.00
2023-04-24T04:06:23.176Z,9.95
2023-04-24T04:08:49.833Z,9.92
2023-04-24T04:11:16.360Z,9.86
2023-04-24T04:13:42.779Z,9.83
2023-04-24T04:16:10.032Z,9.76
2023-04-24T04:18:36.515Z,9.70
2023-04-24T04:21:03.172Z,9.74
2023-04-24T04:23:29.614Z,9.77
2023-04-24T04:25:56.314Z,9.78
2023-04-24T04:28:22.794Z,9.85
2023-04-24T04:30:49.254Z,9.79
2023-04-24T04:33:15.739Z,9.78
2023-04-24T04:35:42.371Z,9.78
2023-04-24T04:38:08.955Z,9.77
2023-04-24T04:40:35.795Z,9.82
2023-04-24T04:43:02.403Z,9.86
2023-04-24T04:45:29.397Z,9.87
2023-04-24T04:47:56.256Z,9.91
2023-04-24T04:50:22.759Z,9.96
2023-04-24T04:52:49.699Z,10.01
2023-04-24T04:55:16.457Z,9.90
2023-04-24T04:57:43.070Z,9.55
2023-04-24T05:00:11.249Z,9.28
2023-04-24T05:02:37.950Z,9.01
2023-04-24T05:05:05.043Z,8.76
2023-04-24T05:07:31.808Z,8.72
2023-04-24T05:09:58.387Z,8.51
2023-04-24T05:12:24.848Z,8.44
2023-04-24T05:14:51.645Z,8.44
2023-04-24T05:17:18.364Z,8.38
2023-04-24T05:19:45.370Z,8.43
2023-04-24T05:22:12.067Z,8.45
2023-04-24T05:24:39.400Z,8.44
2023-04-24T05:27:05.925Z,8.54
2023-04-24T05:29:32.917Z,8.62
2023-04-24T05:31:59.688Z,8.63
2023-04-24T05:34:26.065Z,8.64
2023-04-24T05:36:52.725Z,8.64
2023-04-24T05:39:19.169Z,8.60
2023-04-24T05:41:45.961Z,8.60
2023-04-24T05:44:12.463Z,8.55
2023-04-24T05:46:38.851Z,8.53
2023-04-24T05:49:05.226Z,8.55
2023-04-24T05:51:32.176Z,8.48
2023-04-24T05:54:00.058Z,8.54
2023-04-24T05:56:28.734Z,8.61
2023-04-24T05:58:55.130Z,8.65
2023-04-24T06:01:23.632Z,8.61
2023-04-24T06:03:50.118Z,8.67
2023-04-24T06:06:17.914Z,8.77
2023-04-24T06:08:44.273Z,8.74
2023-04-24T06:11:11.181Z,8.91
2023-04-24T06:13:39.462Z,8.96
2023-04-24T06:16:06.051Z,8.99
2023-04-24T06:18:33.239Z,8.97
2023-04-24T06:20:59.795Z,8.95
2023-04-24T06:23:26.517Z,9.03
2023-04-24T06:25:55.322Z,9.04
2023-04-24T06:28:21.680Z,9.10
2023-04-24T06:30:48.148Z,9.16
2023-04-24T06:35:45.579Z,9.34
2023-04-24T06:38:11.990Z,9.50
2023-04-24T06:40:39.337Z,10.05
2023-04-24T06:43:06.107Z,10.64
2023-04-24T06:45:32.586Z,10.77
2023-04-24T06:47:59.200Z,10.94
2023-04-24T06:50:26.154Z,11.13
2023-04-24T06:52:52.730Z,11.40
2023-04-24T06:55:19.192Z,11.27
2023-04-24T06:57:45.636Z,10.85
2023-04-24T07:00:12.952Z,11.22
2023-04-24T07:02:41.058Z,11.06
2023-04-24T07:05:08.490Z,11.17
2023-04-24T07:07:35.704Z,11.36
2023-04-24T07:10:04.634Z,11.08
2023-04-24T07:12:31.142Z,11.00
2023-04-24T07:14:57.762Z,11.09
2023-04-24T07:17:24.234Z,11.60
2023-04-24T07:19:50.781Z,12.13
2023-04-24T07:22:18.298Z,12.44
2023-04-24T07:24:46.850Z,12.17
2023-04-24T07:27:13.664Z,11.92
2023-04-24T07:29:40.729Z,11.88
2023-04-24T07:32:07.581Z,11.82
2023-04-24T07:34:35.363Z,11.45
2023-04-24T07:37:02.812Z,11.21
2023-04-24T07:39:29.490Z,10.86
2023-04-24T07:41:55.983Z,10.74
2023-04-24T07:44:22.600Z,10.45
2023-04-24T07:46:49.239Z,10.06
2023-04-24T07:49:17.085Z,10.03
2023-04-24T07:51:46.463Z,9.96
2023-04-24T07:54:13.096Z,9.70
2023-04-24T07:56:39.652Z,9.78
2023-04-24T07:59:06.784Z,9.79
2023-04-24T08:01:33.218Z,10.02
2023-04-24T08:03:59.880Z,10.70
2023-04-24T08:06:26.674Z,11.22
2023-04-24T08:08:53.163Z,11.69
2023-04-24T08:11:19.722Z,11.67
2023-04-24T08:13:46.605Z,11.97
2023-04-24T08:16:13.378Z,12.24
2023-04-24T08:18:40.016Z,12.46
2023-04-24T08:21:06.414Z,12.69
2023-04-24T08:23:32.849Z,12.66
2023-04-24T08:25:59.360Z,12.36
2023-04-24T08:28:26.519Z,12.15
2023-04-24T08:30:52.872Z,12.79
2023-04-24T08:33:19.273Z,13.33
2023-04-24T08:35:45.688Z,12.67
2023-04-24T08:38:12.114Z,12.35
2023-04-24T08:40:39.032Z,12.34
2023-04-24T08:43:05.552Z,12.38
2023-04-24T08:45:34.036Z,12.21
2023-04-24T08:48:01.003Z,11.92
2023-04-24T08:50:27.940Z,11.73
2023-04-24T08:52:54.438Z,11.91
2023-04-24T08:55:21.502Z,11.65
2023-04-24T08:57:53.004Z,12.03
2023-04-24T09:00:21.790Z,12.72
2023-04-24T09:02:51.581Z,12.78
2023-04-24T09:05:21.231Z,12.89
2023-04-24T09:07:57.535Z,13.21
2023-04-24T09:10:27.254Z,13.56
2023-04-24T09:12:55.245Z,13.64
2023-04-24T09:15:23.078Z,13.84
2023-04-24T09:17:50.361Z,13.73
2023-04-24T09:20:17.533Z,13.30
2023-04-24T09:22:45.011Z,12.66
2023-04-24T09:25:12.794Z,12.24
2023-04-24T09:27:45.024Z,12.50
2023-04-24T09:30:12.314Z,12.78
2023-04-24T09:32:38.822Z,12.77
2023-04-24T09:35:16.417Z,13.42
2023-04-24T09:37:45.342Z,13.04
2023-04-24T09:40:16.018Z,13.11
2023-04-24T09:42:55.786Z,13.33
2023-04-24T09:45:22.512Z,13.22
2023-04-24T09:47:53.373Z,13.45
2023-04-24T09:50:21.305Z,13.91
2023-04-24T09:53:01.418Z,14.36
2023-04-24T09:55:28.558Z,14.72
2023-04-24T09:58:02.661Z,14.59
2023-04-24T10:00:31.856Z,14.82
2023-04-24T10:03:23.016Z,14.36
2023-04-24T10:05:55.418Z,13.25
2023-04-24T10:08:22.739Z,12.98
2023-04-24T10:10:49.220Z,12.70
2023-04-24T10:13:16.260Z,12.61
2023-04-24T10:15:43.475Z,13.27
2023-04-24T10:18:11.288Z,13.21
2023-04-24T10:20:39.870Z,13.46
2023-04-24T10:23:06.954Z,13.85
2023-04-24T10:25:35.778Z,13.53
2023-04-24T10:28:03.480Z,12.95
2023-04-24T10:30:35.524Z,12.55
2023-04-24T10:33:08.023Z,12.36
2023-04-24T10:35:42.941Z,12.87
2023-04-24T10:38:13.090Z,13.25
2023-04-24T10:40:40.327Z,13.53
2023-04-24T10:43:08.531Z,13.78
2023-04-24T10:45:35.177Z,14.18
2023-04-24T10:48:09.912Z,14.09
2023-04-24T10:50:48.068Z,14.84
2023-04-24T10:53:18.969Z,14.75
2023-04-24T10:56:13.214Z,13.75
2023-04-24T10:58:41.929Z,14.09
2023-04-24T11:01:08.799Z,13.86
2023-04-24T11:03:36.981Z,13.55
2023-04-24T11:06:06.842Z,13.59
2023-04-24T11:08:44.759Z,13.72
2023-04-24T11:11:15.390Z,13.50
2023-04-24T11:13:57.140Z,13.03
2023-04-24T11:16:30.020Z,12.67
2023-04-24T11:19:08.445Z,12.63
2023-04-24T11:22:15.818Z,12.62
2023-04-24T11:24:48.357Z,12.63
2023-04-24T11:27:20.700Z,12.54
2023-04-24T11:29:56.644Z,12.24
2023-04-24T11:32:31.927Z,12.17
2023-04-24T11:35:18.653Z,12.34
2023-04-24T11:37:49.492Z,12.15
2023-04-24T11:40:25.733Z,12.15
2023-04-24T11:42:53.705Z,11.76
2023-04-24T11:45:24.828Z,11.83
2023-04-24T11:47:52.354Z,11.88
2023-04-24T11:50:20.714Z,12.17
2023-04-24T11:52:48.881Z,12.40
2023-04-24T11:55:15.368Z,12.47
2023-04-24T11:57:55.251Z,12.73
2023-04-24T12:00:29.594Z,12.21
2023-04-24T12:03:13.065Z,12.32
2023-04-24T12:05:41.458Z,12.15
2023-04-24T12:08:08.247Z,11.92
2023-04-24T12:10:35.484Z,11.82
2023-04-24T12:13:02.071Z,11.79
2023-04-24T12:15:29.230Z,11.74
2023-04-24T12:17:56.857Z,11.92
2023-04-24T12:20:28.755Z,11.98
2023-04-24T12:22:59.876Z,12.20
2023-04-24T12:25:28.786Z,12.65
2023-04-24T12:28:05.616Z,12.89
2023-04-24T12:30:49.268Z,13.07
2023-04-24T12:33:22.794Z,12.82
2023-04-24T12:35:53.005Z,12.99
2023-04-24T12:38:24.160Z,12.66
2023-04-24T12:41:04.807Z,12.39
2023-04-24T12:43:31.556Z,12.34
2023-04-24T12:45:58.184Z,12.07
2023-04-24T12:48:24.693Z,11.93
2023-04-24T12:50:51.646Z,12.00
2023-04-24T12:53:18.307Z,11.87
2023-04-24T12:55:45.426Z,12.08
2023-04-24T12:58:13.094Z,12.37
2023-04-24T13:00:39.896Z,12.37
2023-04-24T13:03:06.619Z,12.58
2023-04-24T13:05:33.222Z,12.55
2023-04-24T13:07:59.954Z,12.80
2023-04-24T13:10:27.052Z,12.54
2023-04-24T13:12:53.728Z,12.75
2023-04-24T13:15:20.922Z,12.37
2023-04-24T13:17:47.699Z,12.32
2023-04-24T13:20:14.818Z,12.04
2023-04-24T13:22:41.358Z,12.02
2023-04-24T13:25:08.509Z,11.80
2023-04-24T13:27:35.097Z,12.02
2023-04-24T13:30:01.758Z,12.08
2023-04-24T13:32:28.832Z,12.00
2023-04-24T13:34:55.979Z,12.13
2023-04-24T13:37:22.478Z,12.13
2023-04-24T13:39:49.499Z,11.90
2023-04-24T13:42:16.226Z,11.28
2023-04-24T13:44:43.130Z,11.35
2023-04-24T13:47:09.519Z,11.50
2023-04-24T13:49:37.294Z,11.78
2023-04-24T13:52:03.923Z,12.07
2023-04-24T13:54:30.670Z,12.08
2023-04-24T13:56:59.267Z,11.99
2023-04-24T13:59:25.767Z,11.90
2023-04-24T14:01:52.459Z,11.91
2023-04-24T14:04:19.389Z,11.89
2023-04-24T14:06:46.400Z,11.87
2023-04-24T14:09:13.204Z,12.01
2023-04-24T14:11:39.748Z,11.39
2023-04-24T14:14:06.470Z,11.26
2023-04-24T14:16:32.966Z,11.47
2023-04-24T14:18:59.676Z,11.35
2023-04-24T14:21:26.487Z,11.00
2023-04-24T14:23:52.963Z,11.09
2023-04-24T14:26:20.928Z,11.06
2023-04-24T14:28:47.498Z,11.20
2023-04-24T14:31:14.273Z,11.30
2023-04-24T14:33:41.332Z,11.47
2023-04-24T14:36:07.880Z,11.45
2023-04-24T14:38:35.136Z,11.67
2023-04-24T14:43:32.004Z,11.76
2023-04-24T14:45:58.769Z,11.67
2023-04-24T14:48:26.016Z,11.72
2023-04-24T14:50:52.497Z,11.47
2023-04-24T14:53:18.899Z,11.08
2023-04-24T14:55:45.631Z,10.79
2023-04-24T14:58:12.136Z,10.50
2023-04-24T15:00:38.566Z,10.40
2023-04-24T15:03:05.735Z,10.47
2023-04-24T15:05:32.843Z,10.47
2023-04-24T15:07:59.787Z,10.70
2023-04-24T15:10:26.816Z,10.80
2023-04-24T15:12:53.461Z,11.02
2023-04-24T15:15:20.098Z,11.02
2023-04-24T15:17:46.681Z,11.26
2023-04-24T15:20:13.132Z,11.47
2023-04-24T15:22:39.558Z,11.45
2023-04-24T15:25:06.492Z,11.39
2023-04-24T15:27:46.072Z,11.29
2023-04-24T15:30:14.347Z,11.26
2023-04-24T15:32:41.045Z,11.26
2023-04-24T15:35:10.424Z,11.24
2023-04-24T15:37:38.860Z,11.24
2023-04-24T15:40:06.828Z,11.20
2023-04-24T15:42:33.827Z,11.18
2023-04-24T15:45:02.627Z,11.33
2023-04-24T15:47:29.496Z,11.35
2023-04-24T15:49:56.235Z,11.45
2023-04-24T15:52:22.824Z,11.35
2023-04-24T15:54:49.461Z,11.37
2023-04-24T15:57:17.714Z,11.21
2023-04-24T15:59:45.566Z,11.25
2023-04-24T16:02:14.037Z,11.18
2023-04-24T16:04:40.992Z,11.16
2023-04-24T16:07:07.631Z,11.24
2023-04-24T16:09:41.192Z,10.66
2023-04-24T16:12:08.084Z,10.68
2023-04-24T16:14:34.902Z,10.79
2023-04-24T16:17:02.416Z,10.72
2023-04-24T16:19:32.007Z,10.84
2023-04-24T16:21:58.666Z,10.84
2023-04-24T16:24:26.380Z,10.78
2023-04-24T16:26:53.315Z,10.75
2023-04-24T16:29:20.456Z,10.90
2023-04-24T16:31:46.951Z,11.03
2023-04-24T16:34:13.829Z,11.08
2023-04-24T16:36:40.762Z,11.07
2023-04-24T16:39:07.458Z,11.00
2023-04-24T16:41:35.081Z,10.89
2023-04-24T16:44:01.649Z,10.83
2023-04-24T16:46:28.267Z,10.92
2023-04-24T16:48:55.207Z,10.94
2023-04-24T16:51:21.609Z,10.97
2023-04-24T16:53:52.500Z,10.95
2023-04-24T16:56:18.927Z,11.00
2023-04-24T16:58:45.737Z,11.04
2023-04-24T17:01:12.384Z,10.99
2023-04-24T17:03:39.121Z,10.99
2023-04-24T17:06:06.468Z,11.02
2023-04-24T17:08:33.299Z,11.07
2023-04-24T17:10:59.751Z,11.10
2023-04-24T17:13:27.734Z,11.13
2023-04-24T17:15:56.748Z,11.16
2023-04-24T17:18:23.423Z,11.25
2023-04-24T17:20:51.458Z,11.21
2023-04-24T17:23:18.641Z,11.26
2023-04-24T17:25:47.317Z,11.25
2023-04-24T17:28:24.168Z,11.35
2023-04-24T17:30:51.256Z,11.39
2023-04-24T17:33:17.835Z,11.45
2023-04-24T17:35:46.204Z,11.46
2023-04-24T17:38:12.863Z,11.36
2023-04-24T17:40:39.413Z,11.30
2023-04-24T17:43:06.316Z,11.32
2023-04-24T17:45:33.006Z,11.23
2023-04-24T17:47:59.951Z,11.13
2023-04-24T17:50:26.466Z,11.02
2023-04-24T17:52:52.865Z,10.99
2023-04-24T17:55:19.471Z,10.89
2023-04-24T17:57:46.256Z,10.91
2023-04-24T18:00:13.476Z,10.85
2023-04-24T18:02:41.217Z,10.77
2023-04-24T18:05:08.156Z,10.74
2023-04-24T18:07:34.791Z,10.68
2023-04-24T18:10:01.283Z,10.62
2023-04-24T18:12:28.045Z,10.52
2023-04-24T18:15:02.941Z,10.40
2023-04-24T18:17:39.556Z,10.29
2023-04-24T18:20:08.975Z,10.22
2023-04-24T18:22:35.698Z,10.19
2023-04-24T18:25:02.217Z,10.22
2023-04-24T18:27:29.402Z,10.22
2023-04-24T18:29:56.039Z,10.22
2023-04-24T18:32:22.816Z,10.24
2023-04-24T18:34:49.636Z,10.28
2023-04-24T18:37:17.661Z,10.30
2023-04-24T18:39:45.629Z,10.28
2023-04-24T18:42:12.496Z,10.29
2023-04-24T18:44:39.275Z,10.33
2023-04-24T18:47:06.103Z,10.33
2023-04-24T18:49:33.059Z,10.26
2023-04-24T18:52:01.816Z,10.21
2023-04-24T18:54:28.551Z,10.14
2023-04-24T18:56:55.245Z,9.99
2023-04-24T18:59:21.771Z,9.93
2023-04-24T19:01:48.361Z,9.78
2023-04-24T19:04:14.969Z,9.74
2023-04-24T19:06:41.567Z,9.76
2023-04-24T19:09:08.110Z,9.76
2023-04-24T19:11:34.654Z,9.71
2023-04-24T19:14:01.256Z,9.68
2023-04-24T19:16:28.056Z,9.67
2023-04-24T19:18:54.678Z,9.66
2023-04-24T19:21:21.258Z,9.69
2023-04-24T19:23:51.632Z,9.76
2023-04-24T19:26:18.299Z,9.82
2023-04-24T19:28:45.142Z,9.83
2023-04-24T19:31:11.794Z,9.80
2023-04-24T19:33:38.548Z,9.74
2023-04-24T19:36:05.872Z,9.69
2023-04-24T19:38:33.035Z,9.58
2023-04-24T19:40:59.833Z,9.51
2023-04-24T19:43:26.412Z,9.42
2023-04-24T19:45:52.879Z,9.34
2023-04-24T19:48:20.913Z,9.29
2023-04-24T19:50:47.652Z,9.22
2023-04-24T19:53:14.179Z,9.19
2023-04-24T19:55:40.672Z,9.17
2023-04-24T19:58:07.057Z,9.12
2023-04-24T20:00:33.584Z,9.08
2023-04-24T20:03:00.616Z,9.02
2023-04-24T20:05:27.520Z,8.99
2023-04-24T20:07:54.020Z,9.05
2023-04-24T20:10:20.386Z,9.05
2023-04-24T20:12:47.089Z,9.08
2023-04-24T20:15:13.491Z,9.07
2023-04-24T20:17:40.147Z,9.07
2023-04-24T20:20:07.869Z,9.08
2023-04-24T20:22:36.800Z,9.05
2023-04-24T20:25:03.428Z,9.03
2023-04-24T20:27:29.971Z,9.07
2023-04-24T20:29:56.449Z,9.10
2023-04-24T20:32:23.285Z,9.09
2023-04-24T20:34:49.766Z,9.10
2023-04-24T20:37:17.401Z,9.05
2023-04-24T20:39:43.731Z,9.05
2023-04-24T20:42:11.049Z,9.05
2023-04-24T20:44:38.360Z,9.03
2023-04-24T20:47:07.876Z,9.02
2023-04-24T20:49:34.390Z,9.01
2023-04-24T20:52:00.830Z,8.90
2023-04-24T20:54:27.283Z,8.93
2023-04-24T20:56:53.769Z,8.92
2023-04-24T20:59:20.791Z,8.88
2023-04-24T21:01:48.284Z,8.83
2023-04-24T21:04:14.764Z,8.85
2023-04-24T21:06:41.548Z,8.88
2023-04-24T21:09:08.045Z,8.88
2023-04-24T21:11:34.451Z,8.83
2023-04-24T21:14:00.966Z,8.79
2023-04-24T21:16:28.126Z,8.75
2023-04-24T21:18:54.832Z,8.69
2023-04-24T21:21:21.315Z,8.66
2023-04-24T21:23:47.933Z,8.62
2023-04-24T21:26:14.689Z,8.62
2023-04-24T21:28:41.228Z,8.58
2023-04-24T21:31:07.725Z,8.57
2023-04-24T21:33:35.463Z,8.54
2023-04-24T21:36:01.814Z,8.51
2023-04-24T21:38:28.176Z,8.45
2023-04-24T21:40:54.620Z,8.38
2023-04-24T21:43:27.722Z,8.34
2023-04-24T21:46:00.385Z,8.28
2023-04-24T21:48:28.132Z,8.22
2023-04-24T21:50:54.614Z,8.19
2023-04-24T21:53:21.342Z,8.20
2023-04-24T21:55:47.952Z,8.21
2023-04-24T21:58:14.661Z,8.21
2023-04-24T22:00:41.749Z,8.23
2023-04-24T22:03:08.474Z,8.24
2023-04-24T22:05:35.089Z,8.21
2023-04-24T22:08:01.495Z,8.21
2023-04-24T22:10:28.072Z,8.25
2023-04-24T22:12:54.529Z,8.20
2023-04-24T22:15:21.212Z,8.24
2023-04-24T22:17:47.680Z,8.24
2023-04-24T22:20:14.453Z,8.20
2023-04-24T22:22:40.955Z,8.23
2023-04-24T22:25:07.822Z,8.27
2023-04-24T22:27:35.490Z,8.31
2023-04-24T22:30:02.190Z,8.34
2023-04-24T22:32:28.637Z,8.39
2023-04-24T22:34:55.127Z,8.38
2023-04-24T22:37:21.559Z,8.34
2023-04-24T22:39:48.030Z,8.31
2023-04-24T22:42:14.692Z,8.31
2023-04-24T22:44:41.449Z,8.32
2023-04-24T22:47:08.119Z,8.35
2023-04-24T22:49:35.882Z,8.35
2023-04-24T22:52:02.378Z,8.38
2023-04-24T22:54:29.937Z,8.36
2023-04-24T22:56:57.257Z,8.31
2023-04-24T22:59:23.685Z,8.28
2023-04-24T23:01:50.255Z,8.28
2023-04-24T23:04:16.782Z,8.22
2023-04-24T23:06:43.298Z,8.16
2023-04-24T23:09:09.933Z,8.14
2023-04-24T23:11:36.484Z,8.04
2023-04-24T23:14:03.362Z,8.01
2023-04-24T23:16:30.424Z,7.86
2023-04-24T23:18:57.128Z,7.82
2023-04-24T23:21:23.475Z,7.76
2023-04-24T23:23:50.372Z,7.74
2023-04-24T23:26:16.971Z,7.75
2023-04-24T23:28:43.412Z,7.83
2023-04-24T23:31:11.027Z,7.86
2023-04-24T23:33:37.595Z,7.90
2023-04-24T23:36:04.972Z,7.87
2023-04-24T23:38:42.945Z,7.93
2023-04-24T23:41:15.865Z,7.92
2023-04-24T23:43:42.286Z,7.90
2023-04-24T23:46:08.888Z,7.94
2023-04-24T23:48:35.286Z,7.97
2023-04-24T23:51:01.762Z,8.05
2023-04-24T23:53:28.339Z,8.07
2023-04-24T23:55:54.766Z,8.04
2023-04-24T23:58:21.286Z,8.07
